Hawaii METAR Reports

 

PHOG - Kahului, Hawaii, USA
Distance from station: WNW 8mi, 13km
Updated: Tue, 17-Jul-2018 6:54am HST
Mostly Cloudy
Mostly Cloudy
 Wind from NE
Wind: NE 17 mph , 28 km/h, Gust: 26 mph , 43 km/h
Temperature: 77°F , 25°C
Dew Point: 72°F , 22°C
Humidity: 83%
Barometer: 30.00 inHg , 1015.9 hPa
Clouds: Mostly Cloudy
Visibility: 10 miles , 16 km
Cloud details: Partly Cloudy 3000 ft
Partly Cloudy 4800 ft
Mostly Cloudy 6000 ft
2018/07/17 16:54 PHOG 171654Z 05015G23KT 10SM SCT030 SCT048 BKN060 25/22 A3000 RMK AO2 RAB1558E08 SLP164 P0000 T02500222
PHJH - Lahaina/West Mau, Hawaii, USA
Distance from station: WNW 24mi, 39km
Updated: Tue, 17-Jul-2018 6:45am HST
Light rain, Mostly cloudy
Light rain, Mostly cloudy
 Wind from NE
Wind: NE 14 mph , 22 km/h, Gust: 23 mph , 37 km/h
Temperature: 77°F , 25°C
Dew Point: 72°F , 22°C
Humidity: 83%
Barometer: 30.01 inHg , 1016.3 hPa
Summary: Light Rain
Clouds: Mostly Cloudy
Visibility: 10 miles , 16 km
Cloud details: Partly Cloudy 2500 ft
Mostly Cloudy 3500 ft
Mostly Cloudy 4500 ft
2018/07/17 16:45 PHJH 171645Z 04012G20KT 10SM -RA SCT025 BKN035 BKN045 25/22 A3001
 
PHNY - Lanai City Airpo, Hawaii, USA
Distance from station: W 40mi, 65km
Updated: Tue, 17-Jul-2018 6:56am HST
Clear
Clear
 Wind from NNE
Wind: NNE 9 mph , 15 km/h
Temperature: 73°F , 23°C
Dew Point: 68°F , 20°C
Humidity: 83%
Barometer: 30.06 inHg , 1017.9 hPa
Clouds: Clear
Visibility: 10 miles , 16 km
2018/07/17 16:56 PHNY 171656Z AUTO 02008KT 10SM CLR 23/20 A3006 RMK AO2 SLP157 T02280200
PHMK - Molokai, Hawaii, USA
Distance from station: WNW 55mi, 88km
Updated: Tue, 17-Jul-2018 6:54am HST
Light rain, Mostly cloudy
Light rain, Mostly cloudy
 Wind from NE
Wind: NE 13 mph , 20 km/h, Gust: 24 mph , 39 km/h
Temperature: 79°F , 26°C
Dew Point: 72°F , 22°C
Humidity: 79%
Barometer: 30.03 inHg , 1016.9 hPa
Summary: Light Rain
Clouds: Mostly Cloudy
Visibility: 10 miles , 16 km
Cloud details: Few Clouds 1700 ft
Partly Cloudy 2500 ft
Mostly Cloudy 3300 ft
2018/07/17 16:54 PHMK 171654Z 04011G21KT 10SM -RA FEW017 SCT025 BKN033 26/22 A3003 RMK AO2 RAB44 SLP169 P0000 T02560222
 
PHKO - Kailua/Kona, Hawaii, USA
Distance from station: SSE 79mi, 128km
Updated: Tue, 17-Jul-2018 6:53am HST
Haze, Few clouds
Haze, Few clouds
 Wind from E
Wind: E 7 mph , 11 km/h
Temperature: 81°F , 27°C
Heat Index: 83°F , 28°C
Dew Point: 66°F , 19°C
Humidity: 62%
Barometer: 29.96 inHg , 1014.6 hPa
Summary: Haze
Clouds: Few Clouds
Visibility: 8 miles , 13 km
Cloud details: Few Clouds 4000 ft
2018/07/17 16:53 PHKO 171653Z 09006KT 8SM HZ FEW040 27/19 A2996 RMK AO2 SLP146 T02720189
PHSF - Bradshaw Aaf/Haw, Hawaii, USA
Distance from station: SE 90mi, 145km
Updated: Tue, 17-Jul-2018 6:56am HST
Few Clouds
Few Clouds
 Wind from SSE
Wind: SSE 10 mph , 17 km/h
Temperature: 55°F , 13°C
Dew Point: 50°F , 10°C
Humidity: 82%
Barometer: 30.33 inHg , 1027.1 hPa
Clouds: Few Clouds
Visibility: 10 miles , 16 km
Cloud details: Few Clouds 5500 ft
2018/07/17 16:56 PHSF 171656Z AUTO 15009KT 10SM FEW055 13/10 A3033 RMK AO2 SLP157 WND DATA ESTMD T01310103 $
 
PHNG - Kaneohe Mcas, Hawaii, USA
Distance from station: WNW 102mi, 164km
Updated: Tue, 17-Jul-2018 6:57am HST
Mostly Cloudy
Mostly Cloudy
 Wind from ENE
Wind: ENE 17 mph , 28 km/h, Gust: 24 mph , 39 km/h
Temperature: 79°F , 26°C
Dew Point: 73°F , 23°C
Humidity: 84%
Barometer: 30.01 inHg , 1016.3 hPa
Clouds: Mostly Cloudy
Visibility: 10 miles , 16 km
Cloud details: Mostly Cloudy 2100 ft
Mostly Cloudy 2800 ft
2018/07/17 16:57 PHNG 171657Z AUTO 07015G21KT 10SM BKN021 BKN028 26/23 A3001 RMK AO2 SLP157 T02610233 $
PHNL - Honolulu, Hawaii, USA
Distance from station: WNW 108mi, 174km
Updated: Tue, 17-Jul-2018 6:53am HST
Partly Cloudy
Partly Cloudy
 Wind from ENE
Wind: ENE 14 mph , 22 km/h
Temperature: 81°F , 27°C
Heat Index: 85°F , 29°C
Dew Point: 70°F , 21°C
Humidity: 70%
Barometer: 30.01 inHg , 1016.3 hPa
Clouds: Partly Cloudy
Visibility: 10 miles , 16 km
Cloud details: Few Clouds 2500 ft
Partly Cloudy 3500 ft
Partly Cloudy 5000 ft
2018/07/17 16:53 PHNL 171653Z 06012KT 10SM FEW025 SCT035 SCT050 27/21 A3001 RMK AO2 SLP163 VCSH NE T02670206
 
PHTO - Hilo, Hawaii, USA
Distance from station: SE 114mi, 183km
Updated: Tue, 17-Jul-2018 6:53am HST
Overcast
Overcast
 Wind from SW
Wind: SW 3 mph , 6 km/h
Temperature: 75°F , 24°C
Dew Point: 72°F , 22°C
Humidity: 89%
Barometer: 30.05 inHg , 1017.6 hPa
Clouds: Overcast
Visibility: 10 miles , 16 km
Cloud details: Partly Cloudy 2900 ft
Overcast 6000 ft
2018/07/17 16:53 PHTO 171653Z 22003KT 10SM SCT029 OVC060 24/22 A3005 RMK AO2 SLP172 T02390217 $
PHJR - Kalaeloa, Hawaii, USA
Distance from station: WNW 117mi, 189km
Updated: Tue, 17-Jul-2018 6:53am HST
Clear
Clear
 Wind from ENE
Wind: ENE 7 mph , 11 km/h
Temperature: 79°F , 26°C
Dew Point: 70°F , 21°C
Humidity: 74%
Barometer: 30.03 inHg , 1016.9 hPa
Clouds: Clear
Visibility: 10 miles , 16 km
2018/07/17 16:53 PHJR 171653Z 06006KT 10SM CLR 26/21 A3003 RMK AO2 RAE00 SLP174 P0000 T02610206
 
PHHI - Wheeler Afb/Oahu, Hawaii, USA
Distance from station: WNW 120mi, 193km
Updated: Tue, 17-Jul-2018 6:56am HST
Mostly Cloudy
Mostly Cloudy
 Wind from E
Wind: E 12 mph , 19 km/h
Temperature: 75°F , 24°C
Dew Point: 68°F , 20°C
Humidity: 78%
Barometer: 30.03 inHg , 1016.9 hPa
Clouds: Mostly Cloudy
Visibility: 7 miles , 11 km
Cloud details: Partly Cloudy 2700 ft
Partly Cloudy 3500 ft
Mostly Cloudy 4500 ft
2018/07/17 16:56 PHHI 171656Z AUTO 09010KT 7SM SCT027 SCT035 BKN045 24/20 A3003 RMK AO2 SLP158 T02400199 $
PHLI - Lihue/Kauai Is, Hawaii, USA
Distance from station: WNW 209mi, 336km
Updated: Tue, 17-Jul-2018 6:53am HST
Overcast
Overcast
 Wind from ENE
Wind: ENE 14 mph , 22 km/h
Temperature: 77°F , 25°C
Dew Point: 72°F , 22°C
Humidity: 83%
Barometer: 30.06 inHg , 1017.9 hPa
Clouds: Overcast
Visibility: 10 miles , 16 km
Cloud details: Overcast 4800 ft
2018/07/17 16:53 PHLI 171653Z 07012KT 10SM OVC048 25/22 A3006 RMK AO2 SLP176 T02500222 $
 
PHBK - Barking Sands/Ka, Hawaii, USA
Distance from station: WNW 237mi, 382km
Updated: Tue, 17-Jul-2018 6:56am HST
Mostly Cloudy
Mostly Cloudy
 Wind from ESE
Wind: ESE 3 mph , 6 km/h
Temperature: 75°F , 24°C
Dew Point: 72°F , 22°C
Humidity: 89%
Barometer: 30.03 inHg , 1016.9 hPa
Clouds: Mostly Cloudy
Visibility: 10 miles , 16 km
Cloud details: Few Clouds 3800 ft
Mostly Cloudy 5000 ft
2018/07/17 16:56 PHBK 171656Z AUTO 11003KT 10SM FEW038 BKN050 24/22 A3003 RMK AO2 SLP169 T02390217